Quick Links (Output Below):   Max & Min Temps   /   Climate Reports   /   Zone Forecasts
River Forecasts   /   Forestry Forecasts   /   Aviation Forecasts   /   Radars   /   Features

Terminal Aerodrome Forecast (Pine Bluff)

Pick a Site:
Arkadelphia | El Dorado | Fayetteville | Fort Smith | Harrison | Highfill | Hot Springs | Jonesboro
Little Rock | Monticello | Mountain Home | Pine Bluff | Texarkana
 Forecast 

KPBF 211127Z 2112/2212 VRB04KT P6SM SKC
     FM211600 18006KT P6SM BKN150
     FM212100 22007KT P6SM BKN070=


 Latest METARs (Observations) 
How to Decode METARs
12Z KPBF 211153Z AUTO 17003KT 10SM CLR 07/06 A3003 RMK AO2 SLP169
         T00720056 10122 20067 51007
         
11Z KPBF 211053Z AUTO 19004KT 10SM CLR 07/06 A3003 RMK AO2 SLP167
         T00720061
         
10Z KPBF 210953Z AUTO 00000KT 10SM CLR 09/06 A3002 RMK AO2 SLP164
         T00940061
         
09Z KPBF 210853Z AUTO 00000KT 10SM CLR 10/04 A3001 RMK AO2 SLP162
         T01000044 55000
         
08Z KPBF 210753Z AUTO 29003KT 10SM CLR 11/03 A3001 RMK AO2 SLP162
         T01060033
         
07Z KPBF 210653Z AUTO 33007KT 10SM CLR 12/03 A3001 RMK AO2 SLP161
         T01170033
         
06Z KPBF 210553Z AUTO 33006KT 10SM CLR 12/03 A3001 RMK AO2 SLP162
         T01220033 10189 20122 402060117 51014
         
05Z KPBF 210453Z AUTO 32007KT 10SM CLR 13/04 A3000 RMK AO2 SLP157
         T01280039
         
04Z KPBF 210353Z AUTO 27004KT 10SM CLR 13/04 A2999 RMK AO2 SLP154
         T01330039
         
03Z KPBF 210253Z AUTO 31004KT 10SM CLR 14/04 A2997 RMK AO2 SLP148
         T01440044 53028
         
***** Today's Observations (Above) *****


Back to Main Page
http://www.srh.noaa.gov/lzk/qfcst.php

USA.gov is the U.S. government's official web portal to all federal, state and local government web resources and services.